sensor_id;sensor_type;location;lat;lon;timestamp;pressure;altitude;pressure_sealevel;temperature;humidity
17764;BME280;22245;52.832;13.816;2023-02-11T00:01:28;102667.84;;;4.24;66.31
17764;BME280;22245;52.832;13.816;2023-02-11T00:04:50;102671.28;;;4.26;66.82
17764;BME280;22245;52.832;13.816;2023-02-11T00:08:14;102682.78;;;4.23;66.80
17764;BME280;22245;52.832;13.816;2023-02-11T00:11:36;102671.28;;;4.26;66.82
17764;BME280;22245;52.832;13.816;2023-02-11T00:14:58;102672.22;;;4.25;66.38
17764;BME280;22245;52.832;13.816;2023-02-11T00:18:19;102668.00;;;4.17;66.52
17764;BME280;22245;52.832;13.816;2023-02-11T00:21:41;102660.00;;;4.20;67.09
17764;BME280;22245;52.832;13.816;2023-02-11T00:25:05;102660.84;;;4.23;67.22
17764;BME280;22245;52.832;13.816;2023-02-11T00:28:26;102652.00;;;4.24;67.22
17764;BME280;22245;52.832;13.816;2023-02-11T00:31:48;102641.38;;;4.27;66.94
17764;BME280;22245;52.832;13.816;2023-02-11T00:35:10;102632.63;;;4.25;66.79
17764;BME280;22245;52.832;13.816;2023-02-11T00:38:32;102637.81;;;4.28;66.90
17764;BME280;22245;52.832;13.816;2023-02-11T00:41:55;102626.38;;;4.29;66.93
17764;BME280;22245;52.832;13.816;2023-02-11T00:45:17;102598.19;;;4.29;67.42
17764;BME280;22245;52.832;13.816;2023-02-11T00:48:40;102606.09;;;4.31;67.26
17764;BME280;22245;52.832;13.816;2023-02-11T00:52:02;102590.16;;;4.34;67.27
17764;BME280;22245;52.832;13.816;2023-02-11T00:55:24;102572.53;;;4.36;67.58
17764;BME280;22245;52.832;13.816;2023-02-11T00:58:47;102558.50;;;4.34;67.43
17764;BME280;22245;52.832;13.816;2023-02-11T01:02:09;102566.50;;;4.31;68.14
17764;BME280;22245;52.832;13.816;2023-02-11T01:05:31;102577.75;;;4.38;68.02
17764;BME280;22245;52.832;13.816;2023-02-11T01:08:52;102600.59;;;4.39;68.08
17764;BME280;22245;52.832;13.816;2023-02-11T01:12:14;102592.69;;;4.39;68.38
17764;BME280;22245;52.832;13.816;2023-02-11T01:15:37;102585.72;;;4.36;68.40
17764;BME280;22245;52.832;13.816;2023-02-11T01:18:59;102583.09;;;4.34;68.70
17764;BME280;22245;52.832;13.816;2023-02-11T01:22:20;102587.41;;;4.39;68.54
17764;BME280;22245;52.832;13.816;2023-02-11T01:25:42;102578.59;;;4.40;68.62
17764;BME280;22245;52.832;13.816;2023-02-11T01:29:03;102566.13;;;4.43;69.23
17764;BME280;22245;52.832;13.816;2023-02-11T01:32:26;102560.94;;;4.42;69.52
17764;BME280;22245;52.832;13.816;2023-02-11T01:35:48;102567.78;;;4.47;69.09
17764;BME280;22245;52.832;13.816;2023-02-11T01:39:10;102577.31;;;4.52;69.27
17764;BME280;22245;52.832;13.816;2023-02-11T01:42:32;102579.97;;;4.52;69.83
17764;BME280;22245;52.832;13.816;2023-02-11T01:46:05;102579.16;;;4.49;69.79
17764;BME280;22245;52.832;13.816;2023-02-11T01:49:37;102590.50;;;4.52;70.06
17764;BME280;22245;52.832;13.816;2023-02-11T01:53:00;102583.56;;;4.49;70.67
17764;BME280;22245;52.832;13.816;2023-02-11T01:56:46;102573.94;;;4.48;70.90
17764;BME280;22245;52.832;13.816;2023-02-11T02:00:31;102569.69;;;4.42;71.37
17764;BME280;22245;52.832;13.816;2023-02-11T02:03:58;102581.97;;;4.43;71.34
17764;BME280;22245;52.832;13.816;2023-02-11T02:07:28;102584.59;;;4.43;71.97
17764;BME280;22245;52.832;13.816;2023-02-11T02:10:53;102571.28;;;4.48;71.65
17764;BME280;22245;52.832;13.816;2023-02-11T02:14:15;102541.47;;;4.46;71.87
17764;BME280;22245;52.832;13.816;2023-02-11T02:17:44;102558.03;;;4.49;72.46
17764;BME280;22245;52.832;13.816;2023-02-11T02:21:27;102558.13;;;4.46;72.84
17764;BME280;22245;52.832;13.816;2023-02-11T02:25:17;102559.75;;;4.51;72.80
17764;BME280;22245;52.832;13.816;2023-02-11T02:29:05;102575.47;;;4.55;72.85
17764;BME280;22245;52.832;13.816;2023-02-11T02:32:58;102570.91;;;4.60;72.30
17764;BME280;22245;52.832;13.816;2023-02-11T02:36:45;102560.53;;;4.56;72.41
17764;BME280;22245;52.832;13.816;2023-02-11T02:40:11;102546.34;;;4.58;72.38
17764;BME280;22245;52.832;13.816;2023-02-11T02:43:39;102548.94;;;4.60;72.01
17764;BME280;22245;52.832;13.816;2023-02-11T02:47:02;102534.88;;;4.59;71.93
17764;BME280;22245;52.832;13.816;2023-02-11T02:50:28;102525.09;;;4.63;72.17
17764;BME280;22245;52.832;13.816;2023-02-11T02:53:59;102515.41;;;4.63;71.98
17764;BME280;22245;52.832;13.816;2023-02-11T02:57:31;102516.28;;;4.64;71.81
17764;BME280;22245;52.832;13.816;2023-02-11T03:00:59;102519.94;;;4.60;71.81
17764;BME280;22245;52.832;13.816;2023-02-11T03:04:25;102506.66;;;4.61;72.20
17764;BME280;22245;52.832;13.816;2023-02-11T03:07:57;102496.00;;;4.64;71.52
17764;BME280;22245;52.832;13.816;2023-02-11T03:11:21;102479.25;;;4.66;71.81
17764;BME280;22245;52.832;13.816;2023-02-11T03:14:43;102490.69;;;4.66;71.81
17764;BME280;22245;52.832;13.816;2023-02-11T03:18:08;102473.13;;;4.65;71.92
17764;BME280;22245;52.832;13.816;2023-02-11T03:21:34;102480.97;;;4.67;71.73
17764;BME280;22245;52.832;13.816;2023-02-11T03:25:00;102483.59;;;4.68;71.42
17764;BME280;22245;52.832;13.816;2023-02-11T03:28:30;102482.72;;;4.68;71.96
17764;BME280;22245;52.832;13.816;2023-02-11T03:31:57;102487.94;;;4.69;71.92
17764;BME280;22245;52.832;13.816;2023-02-11T03:35:24;102482.59;;;4.71;71.72
17764;BME280;22245;52.832;13.816;2023-02-11T03:38:48;102483.59;;;4.68;71.86
17764;BME280;22245;52.832;13.816;2023-02-11T03:42:14;102475.69;;;4.67;72.21
17764;BME280;22245;52.832;13.816;2023-02-11T03:45:37;102471.19;;;4.70;72.02
17764;BME280;22245;52.832;13.816;2023-02-11T03:49:02;102458.00;;;4.70;72.23
17764;BME280;22245;52.832;13.816;2023-02-11T03:52:27;102457.94;;;4.72;72.23
17764;BME280;22245;52.832;13.816;2023-02-11T03:55:50;102455.41;;;4.69;72.33
17764;BME280;22245;52.832;13.816;2023-02-11T03:59:14;102458.91;;;4.69;73.10
17764;BME280;22245;52.832;13.816;2023-02-11T04:02:36;102471.31;;;4.67;72.81
17764;BME280;22245;52.832;13.816;2023-02-11T04:05:58;102481.97;;;4.64;73.54
17764;BME280;22245;52.832;13.816;2023-02-11T04:09:20;102487.25;;;4.64;73.54
17764;BME280;22245;52.832;13.816;2023-02-11T04:12:42;102488.09;;;4.64;73.48
17764;BME280;22245;52.832;13.816;2023-02-11T04:16:06;102473.97;;;4.66;73.67
17764;BME280;22245;52.832;13.816;2023-02-11T04:19:27;102470.31;;;4.70;73.77
17764;BME280;22245;52.832;13.816;2023-02-11T04:22:49;102473.84;;;4.70;73.94
17764;BME280;22245;52.832;13.816;2023-02-11T04:26:11;102467.66;;;4.71;74.10
17764;BME280;22245;52.832;13.816;2023-02-11T04:29:33;102454.38;;;4.73;74.39
17764;BME280;22245;52.832;13.816;2023-02-11T04:32:56;102448.22;;;4.74;74.58
17764;BME280;22245;52.832;13.816;2023-02-11T04:36:18;102442.88;;;4.75;74.27
17764;BME280;22245;52.832;13.816;2023-02-11T04:39:39;102442.03;;;4.75;74.54
17764;BME280;22245;52.832;13.816;2023-02-11T04:43:01;102439.28;;;4.78;74.63
17764;BME280;22245;52.832;13.816;2023-02-11T04:46:23;102430.38;;;4.81;74.86
17764;BME280;22245;52.832;13.816;2023-02-11T04:49:46;102432.91;;;4.84;74.88
17764;BME280;22245;52.832;13.816;2023-02-11T04:53:08;102418.00;;;4.83;75.10
17764;BME280;22245;52.832;13.816;2023-02-11T04:56:30;102392.41;;;4.85;75.78
17764;BME280;22245;52.832;13.816;2023-02-11T04:59:51;102388.84;;;4.86;75.75
17764;BME280;22245;52.832;13.816;2023-02-11T05:03:13;102376.63;;;4.83;76.40
17764;BME280;22245;52.832;13.816;2023-02-11T05:06:37;102377.47;;;4.84;76.27
17764;BME280;22245;52.832;13.816;2023-02-11T05:09:58;102372.09;;;4.87;76.66
17764;BME280;22245;52.832;13.816;2023-02-11T05:13:20;102374.81;;;4.85;76.87
17764;BME280;22245;52.832;13.816;2023-02-11T05:16:42;102359.75;;;4.87;77.35
17764;BME280;22245;52.832;13.816;2023-02-11T05:20:05;102362.50;;;4.84;77.64
17764;BME280;22245;52.832;13.816;2023-02-11T05:23:28;102369.53;;;4.85;77.63
17764;BME280;22245;52.832;13.816;2023-02-11T05:26:49;102381.81;;;4.86;78.13
17764;BME280;22245;52.832;13.816;2023-02-11T05:30:12;102388.69;;;4.90;77.80
17764;BME280;22245;52.832;13.816;2023-02-11T05:33:34;102363.13;;;4.91;78.61
17764;BME280;22245;52.832;13.816;2023-02-11T05:36:55;102358.69;;;4.93;78.48
17764;BME280;22245;52.832;13.816;2023-02-11T05:40:18;102359.59;;;4.92;78.98
17764;BME280;22245;52.832;13.816;2023-02-11T05:43:40;102352.50;;;4.94;79.10
17764;BME280;22245;52.832;13.816;2023-02-11T05:47:02;102356.09;;;4.91;79.70
17764;BME280;22245;52.832;13.816;2023-02-11T05:50:24;102358.88;;;4.87;81.29
17764;BME280;22245;52.832;13.816;2023-02-11T05:53:46;102371.94;;;4.91;81.22
17764;BME280;22245;52.832;13.816;2023-02-11T05:57:09;102362.16;;;4.95;81.80
17764;BME280;22245;52.832;13.816;2023-02-11T06:00:31;102353.22;;;4.98;82.13
17764;BME280;22245;52.832;13.816;2023-02-11T06:03:52;102346.88;;;5.03;81.92
17764;BME280;22245;52.832;13.816;2023-02-11T06:07:14;102351.16;;;5.06;82.32
17764;BME280;22245;52.832;13.816;2023-02-11T06:10:37;102339.66;;;5.09;82.99
17764;BME280;22245;52.832;13.816;2023-02-11T06:14:00;102341.25;;;5.13;82.71
17764;BME280;22245;52.832;13.816;2023-02-11T06:17:21;102341.25;;;5.13;83.09
17764;BME280;22245;52.832;13.816;2023-02-11T06:20:44;102336.91;;;5.12;83.40
17764;BME280;22245;52.832;13.816;2023-02-11T06:24:06;102320.13;;;5.13;83.78
17764;BME280;22245;52.832;13.816;2023-02-11T06:27:28;102324.34;;;5.18;84.18
17764;BME280;22245;52.832;13.816;2023-02-11T06:30:52;102313.69;;;5.20;84.13
17764;BME280;22245;52.832;13.816;2023-02-11T06:34:13;102316.28;;;5.21;84.69
17764;BME280;22245;52.832;13.816;2023-02-11T06:37:36;102305.63;;;5.25;84.89
17764;BME280;22245;52.832;13.816;2023-02-11T06:40:57;102317.81;;;5.27;85.22
17764;BME280;22245;52.832;13.816;2023-02-11T06:44:19;102336.28;;;5.29;85.25
17764;BME280;22245;52.832;13.816;2023-02-11T06:47:42;102331.75;;;5.32;85.00
17764;BME280;22245;52.832;13.816;2023-02-11T06:51:06;102331.00;;;5.29;85.96
17764;BME280;22245;52.832;13.816;2023-02-11T06:54:28;102333.47;;;5.33;85.73
17764;BME280;22245;52.832;13.816;2023-02-11T06:57:50;102342.09;;;5.39;85.48
17764;BME280;22245;52.832;13.816;2023-02-11T07:01:14;102333.34;;;5.36;85.98
17764;BME280;22245;52.832;13.816;2023-02-11T07:04:37;102339.31;;;5.42;86.02
17764;BME280;22245;52.832;13.816;2023-02-11T07:07:58;102334.97;;;5.41;86.21
17764;BME280;22245;52.832;13.816;2023-02-11T07:11:22;102330.53;;;5.41;86.05
17764;BME280;22245;52.832;13.816;2023-02-11T07:14:44;102326.94;;;5.42;86.38
17764;BME280;22245;52.832;13.816;2023-02-11T07:18:06;102302.22;;;5.45;86.78
17764;BME280;22245;52.832;13.816;2023-02-11T07:21:29;102302.13;;;5.46;86.48
17764;BME280;22245;52.832;13.816;2023-02-11T07:24:51;102316.25;;;5.45;87.12
17764;BME280;22245;52.832;13.816;2023-02-11T07:28:12;102308.19;;;5.50;86.82
17764;BME280;22245;52.832;13.816;2023-02-11T07:31:34;102315.97;;;5.53;86.52
17764;BME280;22245;52.832;13.816;2023-02-11T07:34:55;102317.66;;;5.56;86.76
17764;BME280;22245;52.832;13.816;2023-02-11T07:38:19;102309.53;;;5.60;86.65
17764;BME280;22245;52.832;13.816;2023-02-11T07:41:41;102319.94;;;5.65;86.45
17764;BME280;22245;52.832;13.816;2023-02-11T07:45:04;102318.03;;;5.69;86.57
17764;BME280;22245;52.832;13.816;2023-02-11T07:48:26;102321.50;;;5.71;86.65
17764;BME280;22245;52.832;13.816;2023-02-11T07:51:48;102321.38;;;5.74;86.72
17764;BME280;22245;52.832;13.816;2023-02-11T07:55:12;102326.56;;;5.75;86.72
17764;BME280;22245;52.832;13.816;2023-02-11T07:58:34;102339.78;;;5.75;87.01
17764;BME280;22245;52.832;13.816;2023-02-11T08:01:56;102348.59;;;5.76;87.41
17764;BME280;22245;52.832;13.816;2023-02-11T08:05:18;102347.44;;;5.83;87.50
17764;BME280;22245;52.832;13.816;2023-02-11T08:08:41;102337.91;;;5.79;88.07
17764;BME280;22245;52.832;13.816;2023-02-11T08:12:04;102346.88;;;5.75;88.33
17764;BME280;22245;52.832;13.816;2023-02-11T08:15:26;102336.97;;;5.80;88.23
17764;BME280;22245;52.832;13.816;2023-02-11T08:18:48;102330.66;;;5.84;88.06
17764;BME280;22245;52.832;13.816;2023-02-11T08:22:10;102334.09;;;5.86;88.02
17764;BME280;22245;52.832;13.816;2023-02-11T08:25:32;102350.75;;;5.88;88.03
17764;BME280;22245;52.832;13.816;2023-02-11T08:28:56;102350.59;;;5.93;87.93
17764;BME280;22245;52.832;13.816;2023-02-11T08:32:18;102332.88;;;5.95;87.88
17764;BME280;22245;52.832;13.816;2023-02-11T08:35:39;102332.75;;;5.98;87.58
17764;BME280;22245;52.832;13.816;2023-02-11T08:39:03;102319.44;;;6.00;87.76
17764;BME280;22245;52.832;13.816;2023-02-11T08:42:38;102330.84;;;6.02;87.49
17764;BME280;22245;52.832;13.816;2023-02-11T08:46:01;102344.88;;;6.04;87.47
17764;BME280;22245;52.832;13.816;2023-02-11T08:49:23;102357.13;;;6.06;87.64
17764;BME280;22245;52.832;13.816;2023-02-11T08:52:45;102355.53;;;6.02;88.14
17764;BME280;22245;52.832;13.816;2023-02-11T08:56:08;102351.88;;;6.05;88.00
17764;BME280;22245;52.832;13.816;2023-02-11T08:59:33;102330.63;;;6.08;88.05
17764;BME280;22245;52.832;13.816;2023-02-11T09:02:56;102330.41;;;6.13;88.18
17764;BME280;22245;52.832;13.816;2023-02-11T09:06:20;102347.22;;;6.12;88.34
17764;BME280;22245;52.832;13.816;2023-02-11T09:09:42;102354.19;;;6.14;88.45
17764;BME280;22245;52.832;13.816;2023-02-11T09:13:04;102355.81;;;6.17;88.27
17764;BME280;22245;52.832;13.816;2023-02-11T09:16:29;102369.00;;;6.18;88.37
17764;BME280;22245;52.832;13.816;2023-02-11T09:19:52;102384.75;;;6.21;88.51
17764;BME280;22245;52.832;13.816;2023-02-11T09:23:14;102387.22;;;6.26;88.61
17764;BME280;22245;52.832;13.816;2023-02-11T09:26:40;102390.03;;;6.21;89.27
17764;BME280;22245;52.832;13.816;2023-02-11T09:30:02;102383.88;;;6.21;89.35
17764;BME280;22245;52.832;13.816;2023-02-11T09:33:23;102379.47;;;6.21;90.01
17764;BME280;22245;52.832;13.816;2023-02-11T09:36:47;102372.16;;;6.28;89.74
17764;BME280;22245;52.832;13.816;2023-02-11T09:40:09;102379.19;;;6.28;89.89
17764;BME280;22245;52.832;13.816;2023-02-11T09:43:35;102389.53;;;6.34;89.65
17764;BME280;22245;52.832;13.816;2023-02-11T09:46:59;102397.41;;;6.35;89.67
17764;BME280;22245;52.832;13.816;2023-02-11T09:50:27;102409.53;;;6.41;89.59
17764;BME280;22245;52.832;13.816;2023-02-11T09:53:56;102407.00;;;6.38;89.75
17764;BME280;22245;52.832;13.816;2023-02-11T09:57:21;102413.84;;;6.44;89.57
17764;BME280;22245;52.832;13.816;2023-02-11T10:00:56;102422.66;;;6.44;89.52
17764;BME280;22245;52.832;13.816;2023-02-11T10:04:33;102415.53;;;6.46;89.57
17764;BME280;22245;52.832;13.816;2023-02-11T10:08:04;102410.28;;;6.45;89.87
17764;BME280;22245;52.832;13.816;2023-02-11T10:11:45;102397.91;;;6.45;89.73
17764;BME280;22245;52.832;13.816;2023-02-11T10:15:17;102392.63;;;6.45;89.97
17764;BME280;22245;52.832;13.816;2023-02-11T10:18:56;102396.84;;;6.49;89.84
17764;BME280;22245;52.832;13.816;2023-02-11T10:22:30;102385.34;;;6.50;89.61
17764;BME280;22245;52.832;13.816;2023-02-11T10:25:56;102377.31;;;6.52;89.83
17764;BME280;22245;52.832;13.816;2023-02-11T10:29:31;102370.25;;;6.53;89.63
17764;BME280;22245;52.832;13.816;2023-02-11T10:32:58;102383.41;;;6.54;89.36
17764;BME280;22245;52.832;13.816;2023-02-11T10:36:24;102380.59;;;6.59;89.53
17764;BME280;22245;52.832;13.816;2023-02-11T10:39:47;102384.03;;;6.61;89.41
17764;BME280;22245;52.832;13.816;2023-02-11T10:43:11;102370.72;;;6.62;89.38
17764;BME280;22245;52.832;13.816;2023-02-11T10:46:36;102353.97;;;6.62;89.71
17764;BME280;22245;52.832;13.816;2023-02-11T10:49:59;102357.59;;;6.59;89.86
17764;BME280;22245;52.832;13.816;2023-02-11T10:53:23;102370.84;;;6.59;89.79
17764;BME280;22245;52.832;13.816;2023-02-11T10:56:48;102363.50;;;6.66;89.62
17764;BME280;22245;52.832;13.816;2023-02-11T11:00:34;102360.72;;;6.69;89.36
17764;BME280;22245;52.832;13.816;2023-02-11T11:04:00;102351.06;;;6.68;89.52
17764;BME280;22245;52.832;13.816;2023-02-11T11:07:24;102345.78;;;6.68;89.54
17764;BME280;22245;52.832;13.816;2023-02-11T11:10:47;102345.84;;;6.66;89.90
17764;BME280;22245;52.832;13.816;2023-02-11T11:14:18;102341.66;;;6.61;90.59
17764;BME280;22245;52.832;13.816;2023-02-11T11:17:40;102355.69;;;6.63;90.21
17764;BME280;22245;52.832;13.816;2023-02-11T11:21:04;102354.63;;;6.67;90.15
17764;BME280;22245;52.832;13.816;2023-02-11T11:24:30;102340.47;;;6.68;90.38
17764;BME280;22245;52.832;13.816;2023-02-11T11:27:56;102339.50;;;6.71;90.20
17764;BME280;22245;52.832;13.816;2023-02-11T11:31:21;102338.56;;;6.72;90.61
17764;BME280;22245;52.832;13.816;2023-02-11T11:34:48;102356.03;;;6.76;90.56
17764;BME280;22245;52.832;13.816;2023-02-11T11:38:12;102367.56;;;6.75;90.50
17764;BME280;22245;52.832;13.816;2023-02-11T11:41:35;102370.38;;;6.70;91.17
17764;BME280;22245;52.832;13.816;2023-02-11T11:44:59;102377.28;;;6.74;90.68
17764;BME280;22245;52.832;13.816;2023-02-11T11:48:24;102383.38;;;6.76;90.73
17764;BME280;22245;52.832;13.816;2023-02-11T11:52:05;102377.88;;;6.81;90.61
17764;BME280;22245;52.832;13.816;2023-02-11T11:55:34;102373.25;;;6.86;90.52
17764;BME280;22245;52.832;13.816;2023-02-11T11:58:59;102383.69;;;6.89;90.73
17764;BME280;22245;52.832;13.816;2023-02-11T12:02:40;102403.16;;;6.88;90.96
17764;BME280;22245;52.832;13.816;2023-02-11T12:06:16;102402.25;;;6.89;91.17
17764;BME280;22245;52.832;13.816;2023-02-11T12:09:48;102404.88;;;6.89;91.18
17764;BME280;22245;52.832;13.816;2023-02-11T12:13:24;102392.97;;;7.00;90.94
17764;BME280;22245;52.832;13.816;2023-02-11T12:16:53;102405.16;;;7.04;90.68
17764;BME280;22245;52.832;13.816;2023-02-11T12:20:31;102395.38;;;7.06;90.50
17764;BME280;22245;52.832;13.816;2023-02-11T12:24:14;102397.22;;;7.04;90.56
17764;BME280;22245;52.832;13.816;2023-02-11T12:27:47;102414.63;;;7.09;90.12
17764;BME280;22245;52.832;13.816;2023-02-11T12:31:26;102422.44;;;7.13;90.54
17764;BME280;22245;52.832;13.816;2023-02-11T12:35:04;102418.81;;;7.15;90.24
17764;BME280;22245;52.832;13.816;2023-02-11T12:38:48;102427.47;;;7.19;90.00
17764;BME280;22245;52.832;13.816;2023-02-11T12:42:37;102428.28;;;7.21;89.84
17764;BME280;22245;52.832;13.816;2023-02-11T12:46:33;102431.78;;;7.21;89.92
17764;BME280;22245;52.832;13.816;2023-02-11T12:50:12;102441.53;;;7.21;90.70
17764;BME280;22245;52.832;13.816;2023-02-11T12:53:49;102441.19;;;7.29;90.74
17764;BME280;22245;52.832;13.816;2023-02-11T12:57:18;102451.72;;;7.30;91.05
17764;BME280;22245;52.832;13.816;2023-02-11T13:00:45;102443.63;;;7.33;90.60
17764;BME280;22245;52.832;13.816;2023-02-11T13:04:16;102434.56;;;7.39;90.69
17764;BME280;22245;52.832;13.816;2023-02-11T13:07:43;102436.59;;;7.32;91.14
17764;BME280;22245;52.832;13.816;2023-02-11T13:11:10;102436.28;;;7.40;91.40
17764;BME280;22245;52.832;13.816;2023-02-11T13:14:37;102424.94;;;7.36;91.74
17764;BME280;22245;52.832;13.816;2023-02-11T13:18:06;102423.88;;;7.41;92.23
17764;BME280;22245;52.832;13.816;2023-02-11T13:21:48;102430.06;;;7.41;91.85
17764;BME280;22245;52.832;13.816;2023-02-11T13:25:18;102421.72;;;7.49;92.00
17764;BME280;22245;52.832;13.816;2023-02-11T13:28:50;102418.00;;;7.53;92.49
17764;BME280;22245;52.832;13.816;2023-02-11T13:32:14;102410.13;;;7.51;92.88
17764;BME280;22245;52.832;13.816;2023-02-11T13:35:37;102415.22;;;7.56;92.89
17764;BME280;22245;52.832;13.816;2023-02-11T13:39:03;102423.84;;;7.61;92.75
17764;BME280;22245;52.832;13.816;2023-02-11T13:42:27;102423.69;;;7.64;93.32
17764;BME280;22245;52.832;13.816;2023-02-11T13:45:51;102418.53;;;7.61;93.53
17764;BME280;22245;52.832;13.816;2023-02-11T13:49:19;102421.06;;;7.64;93.61
17764;BME280;22245;52.832;13.816;2023-02-11T13:52:41;102409.50;;;7.65;93.72
17764;BME280;22245;52.832;13.816;2023-02-11T13:56:07;102412.03;;;7.68;93.12
17764;BME280;22245;52.832;13.816;2023-02-11T13:59:44;102424.34;;;7.70;93.19
17764;BME280;22245;52.832;13.816;2023-02-11T14:03:21;102434.22;;;7.66;93.70
17764;BME280;22245;52.832;13.816;2023-02-11T14:07:25;102419.03;;;7.70;93.10
17764;BME280;22245;52.832;13.816;2023-02-11T14:11:08;102421.53;;;7.73;92.92
17764;BME280;22245;52.832;13.816;2023-02-11T14:14:32;102431.44;;;7.69;92.98
17764;BME280;22245;52.832;13.816;2023-02-11T14:17:55;102443.09;;;7.65;93.21
17764;BME280;22245;52.832;13.816;2023-02-11T14:21:19;102434.16;;;7.67;93.16
17764;BME280;22245;52.832;13.816;2023-02-11T14:24:49;102448.41;;;7.65;93.36
17764;BME280;22245;52.832;13.816;2023-02-11T14:28:17;102459.94;;;7.64;93.08
17764;BME280;22245;52.832;13.816;2023-02-11T14:31:48;102474.94;;;7.65;93.39
17764;BME280;22245;52.832;13.816;2023-02-11T14:35:21;102477.53;;;7.66;93.61
17764;BME280;22245;52.832;13.816;2023-02-11T14:38:54;102476.66;;;7.66;93.24
17764;BME280;22245;52.832;13.816;2023-02-11T14:42:22;102490.28;;;7.58;93.51
17764;BME280;22245;52.832;13.816;2023-02-11T14:45:49;102506.19;;;7.58;93.89
17764;BME280;22245;52.832;13.816;2023-02-11T14:49:20;102489.69;;;7.51;94.25
17764;BME280;22245;52.832;13.816;2023-02-11T14:52:44;102501.88;;;7.56;94.26
17764;BME280;22245;52.832;13.816;2023-02-11T14:56:16;102506.88;;;7.62;94.17
17764;BME280;22245;52.832;13.816;2023-02-11T14:59:53;102513.22;;;7.59;94.59
17764;BME280;22245;52.832;13.816;2023-02-11T15:03:32;102517.63;;;7.59;94.93
17764;BME280;22245;52.832;13.816;2023-02-11T15:06:54;102516.56;;;7.63;94.94
17764;BME280;22245;52.832;13.816;2023-02-11T15:10:24;102520.94;;;7.64;94.73
17764;BME280;22245;52.832;13.816;2023-02-11T15:13:48;102528.63;;;7.70;94.98
17764;BME280;22245;52.832;13.816;2023-02-11T15:17:15;102531.94;;;7.75;94.71
17764;BME280;22245;52.832;13.816;2023-02-11T15:20:41;102532.00;;;7.74;94.08
17764;BME280;22245;52.832;13.816;2023-02-11T15:24:04;102546.06;;;7.76;94.28
17764;BME280;22245;52.832;13.816;2023-02-11T15:27:26;102546.06;;;7.76;94.27
17764;BME280;22245;52.832;13.816;2023-02-11T15:30:55;102554.06;;;7.74;94.10
17764;BME280;22245;52.832;13.816;2023-02-11T15:34:17;102544.25;;;7.76;94.28
17764;BME280;22245;52.832;13.816;2023-02-11T15:37:40;102541.69;;;7.75;94.05
17764;BME280;22245;52.832;13.816;2023-02-11T15:41:03;102538.91;;;7.78;93.92
17764;BME280;22245;52.832;13.816;2023-02-11T15:44:28;102547.78;;;7.77;93.94
17764;BME280;22245;52.832;13.816;2023-02-11T15:47:51;102556.47;;;7.80;93.78
17764;BME280;22245;52.832;13.816;2023-02-11T15:51:18;102557.31;;;7.81;94.02
17764;BME280;22245;52.832;13.816;2023-02-11T15:54:45;102566.06;;;7.83;93.93
17764;BME280;22245;52.832;13.816;2023-02-11T15:58:08;102561.69;;;7.82;93.96
17764;BME280;22245;52.832;13.816;2023-02-11T16:01:31;102569.66;;;7.82;93.91
17764;BME280;22245;52.832;13.816;2023-02-11T16:04:56;102571.47;;;7.81;93.53
17764;BME280;22245;52.832;13.816;2023-02-11T16:08:23;102574.03;;;7.83;93.70
17764;BME280;22245;52.832;13.816;2023-02-11T16:11:55;102574.03;;;7.83;93.56
17764;BME280;22245;52.832;13.816;2023-02-11T16:15:44;102576.69;;;7.83;93.92
17764;BME280;22245;52.832;13.816;2023-02-11T16:19:13;102581.06;;;7.84;93.49
17764;BME280;22245;52.832;13.816;2023-02-11T16:22:38;102576.50;;;7.88;93.51
17764;BME280;22245;52.832;13.816;2023-02-11T16:26:02;102577.47;;;7.85;93.35
17764;BME280;22245;52.832;13.816;2023-02-11T16:29:31;102575.63;;;7.87;93.07
17764;BME280;22245;52.832;13.816;2023-02-11T16:32:54;102587.16;;;7.86;93.42
17764;BME280;22245;52.832;13.816;2023-02-11T16:36:16;102604.09;;;7.84;93.20
17764;BME280;22245;52.832;13.816;2023-02-11T16:39:38;102608.34;;;7.88;93.20
17764;BME280;22245;52.832;13.816;2023-02-11T16:43:00;102612.63;;;7.90;92.91
17764;BME280;22245;52.832;13.816;2023-02-11T16:46:22;102622.31;;;7.91;93.05
17764;BME280;22245;52.832;13.816;2023-02-11T16:49:44;102628.50;;;7.92;92.32
17764;BME280;22245;52.832;13.816;2023-02-11T16:53:06;102640.75;;;7.94;92.63
17764;BME280;22245;52.832;13.816;2023-02-11T16:56:28;102631.06;;;7.93;92.42
17764;BME280;22245;52.832;13.816;2023-02-11T16:59:51;102625.75;;;7.93;92.43
17764;BME280;22245;52.832;13.816;2023-02-11T17:03:17;102629.34;;;7.92;92.15
17764;BME280;22245;52.832;13.816;2023-02-11T17:06:41;102624.25;;;7.88;91.93
17764;BME280;22245;52.832;13.816;2023-02-11T17:10:04;102624.97;;;7.91;92.04
17764;BME280;22245;52.832;13.816;2023-02-11T17:13:27;102623.22;;;7.90;91.91
17764;BME280;22245;52.832;13.816;2023-02-11T17:16:49;102621.66;;;7.86;92.40
17764;BME280;22245;52.832;13.816;2023-02-11T17:20:13;102627.97;;;7.84;91.96
17764;BME280;22245;52.832;13.816;2023-02-11T17:23:36;102636.06;;;7.80;92.54
17764;BME280;22245;52.832;13.816;2023-02-11T17:26:57;102629.09;;;7.78;92.28
17764;BME280;22245;52.832;13.816;2023-02-11T17:30:19;102622.19;;;7.74;92.47
17764;BME280;22245;52.832;13.816;2023-02-11T17:33:42;102636.28;;;7.74;92.14
17764;BME280;22245;52.832;13.816;2023-02-11T17:37:06;102638.94;;;7.74;92.49
17764;BME280;22245;52.832;13.816;2023-02-11T17:44:05;102647.91;;;7.72;92.14
17764;BME280;22245;52.832;13.816;2023-02-11T17:47:27;102655.88;;;7.72;92.69
17764;BME280;22245;52.832;13.816;2023-02-11T17:50:49;102655.22;;;7.66;92.60
17764;BME280;22245;52.832;13.816;2023-02-11T17:54:14;102654.31;;;7.66;92.19
17764;BME280;22245;52.832;13.816;2023-02-11T17:57:35;102666.75;;;7.65;92.45
17764;BME280;22245;52.832;13.816;2023-02-11T18:00:57;102658.84;;;7.64;92.20